createdAt,value
2022-11-19T00:01:19.848Z,68.82
2022-11-19T00:03:52.158Z,69.38
2022-11-19T00:06:22.237Z,68.64
2022-11-19T00:08:48.885Z,69.00
2022-11-19T00:11:40.126Z,68.92
2022-11-19T00:14:07.703Z,69.26
2022-11-19T00:16:34.331Z,69.05
2022-11-19T00:19:00.857Z,68.94
2022-11-19T00:21:27.466Z,68.99
2022-11-19T00:23:55.078Z,68.84
2022-11-19T00:26:21.973Z,68.89
2022-11-19T00:28:48.755Z,68.84
2022-11-19T00:31:16.414Z,68.59
2022-11-19T00:33:44.546Z,69.01
2022-11-19T00:36:13.874Z,68.88
2022-11-19T00:38:40.426Z,68.82
2022-11-19T00:41:07.188Z,69.25
2022-11-19T00:43:49.596Z,68.75
2022-11-19T00:46:25.224Z,68.26
2022-11-19T00:48:53.584Z,68.82
2022-11-19T00:51:21.600Z,69.16
2022-11-19T00:53:48.185Z,68.67
2022-11-19T00:56:18.022Z,68.46
2022-11-19T00:58:45.248Z,68.36
2022-11-19T01:01:13.577Z,68.50
2022-11-19T01:03:41.121Z,68.66
2022-11-19T01:06:09.101Z,68.88
2022-11-19T01:08:36.106Z,68.42
2022-11-19T01:11:12.720Z,68.58
2022-11-19T01:13:39.340Z,68.64
2022-11-19T01:16:10.142Z,68.48
2022-11-19T01:18:38.609Z,68.62
2022-11-19T01:21:05.844Z,68.73
2022-11-19T01:23:33.358Z,68.18
2022-11-19T01:26:01.069Z,68.67
2022-11-19T01:28:28.044Z,68.00
2022-11-19T01:30:54.448Z,68.93
2022-11-19T01:33:22.637Z,68.73
2022-11-19T01:36:00.605Z,68.51
2022-11-19T01:38:27.794Z,68.76
2022-11-19T01:40:55.627Z,68.35
2022-11-19T01:43:47.176Z,68.02
2022-11-19T01:46:16.916Z,68.22
2022-11-19T01:48:49.023Z,68.46
2022-11-19T01:51:31.108Z,67.83
2022-11-19T01:54:00.268Z,68.42
2022-11-19T01:56:28.207Z,68.31
2022-11-19T02:01:50.690Z,68.05
2022-11-19T02:04:20.495Z,67.82
2022-11-19T02:06:47.936Z,67.83
2022-11-19T02:09:14.907Z,67.72
2022-11-19T02:12:05.228Z,67.88
2022-11-19T02:14:55.182Z,67.60
2022-11-19T02:17:50.572Z,67.69
2022-11-19T02:20:45.916Z,68.15
2022-11-19T02:23:50.030Z,67.97
2022-11-19T02:26:34.762Z,67.85
2022-11-19T02:29:13.596Z,67.92
2022-11-19T02:31:54.461Z,67.34
2022-11-19T02:34:32.989Z,68.02
2022-11-19T02:37:05.313Z,67.89
2022-11-19T02:39:35.068Z,68.02
2022-11-19T02:42:18.696Z,67.72
2022-11-19T02:45:05.531Z,67.82
2022-11-19T02:47:46.868Z,67.63
2022-11-19T02:50:23.354Z,67.94
2022-11-19T02:52:50.390Z,68.18
2022-11-19T02:55:19.668Z,68.26
2022-11-19T02:57:59.031Z,67.66
2022-11-19T03:00:45.090Z,68.04
2022-11-19T03:03:34.085Z,67.54
2022-11-19T03:06:18.445Z,67.11
2022-11-19T03:08:46.476Z,67.92
2022-11-19T03:11:28.399Z,67.15
2022-11-19T03:14:38.622Z,66.83
2022-11-19T03:17:17.865Z,67.51
2022-11-19T03:19:58.232Z,67.49
2022-11-19T03:22:33.691Z,67.61
2022-11-19T03:25:37.454Z,67.98
2022-11-19T03:28:11.382Z,67.32
2022-11-19T03:30:40.756Z,67.27
2022-11-19T03:33:11.657Z,67.41
2022-11-19T03:35:45.090Z,67.43
2022-11-19T03:38:16.779Z,67.43
2022-11-19T03:40:44.648Z,67.47
2022-11-19T03:43:15.979Z,67.19
2022-11-19T03:45:45.491Z,67.46
2022-11-19T03:48:15.756Z,67.25
2022-11-19T03:51:08.277Z,67.23
2022-11-19T03:53:34.924Z,67.36
2022-11-19T03:56:07.616Z,67.05
2022-11-19T03:58:42.426Z,66.97
2022-11-19T04:01:09.884Z,67.16
2022-11-19T04:03:36.781Z,67.34
2022-11-19T04:06:04.189Z,67.58
2022-11-19T04:08:31.049Z,67.18
2022-11-19T04:13:24.558Z,67.89
2022-11-19T04:15:51.526Z,67.43
2022-11-19T04:18:18.089Z,66.93
2022-11-19T04:20:45.656Z,67.47
2022-11-19T04:23:12.170Z,66.83
2022-11-19T04:25:40.414Z,67.01
2022-11-19T04:28:07.001Z,67.09
2022-11-19T04:30:33.616Z,66.46
2022-11-19T04:33:00.172Z,66.33
2022-11-19T04:35:26.736Z,66.60
2022-11-19T04:37:53.238Z,66.84
2022-11-19T04:40:19.790Z,66.95
2022-11-19T04:42:46.300Z,66.82
2022-11-19T04:45:12.857Z,66.35
2022-11-19T04:47:39.371Z,66.57
2022-11-19T04:50:06.386Z,66.97
2022-11-19T04:52:37.656Z,67.04
2022-11-19T04:55:07.159Z,66.74
2022-11-19T04:58:14.086Z,66.69
2022-11-19T05:00:40.654Z,66.65
2022-11-19T05:03:07.191Z,66.57
2022-11-19T05:05:33.691Z,66.83
2022-11-19T05:08:02.020Z,66.69
2022-11-19T05:10:28.571Z,67.12
2022-11-19T05:12:55.135Z,66.88
2022-11-19T05:15:21.714Z,67.27
2022-11-19T05:17:48.303Z,66.60
2022-11-19T05:20:15.400Z,66.50
2022-11-19T05:22:41.938Z,66.62
2022-11-19T05:25:08.880Z,67.01
2022-11-19T05:27:35.363Z,66.92
2022-11-19T05:30:01.921Z,66.94
2022-11-19T05:32:28.605Z,66.49
2022-11-19T05:34:55.135Z,66.92
2022-11-19T05:37:21.756Z,66.66
2022-11-19T05:39:48.245Z,66.59
2022-11-19T05:42:14.799Z,67.12
2022-11-19T05:44:41.345Z,67.09
2022-11-19T05:47:07.963Z,66.82
2022-11-19T05:49:34.559Z,66.96
2022-11-19T05:52:01.128Z,66.92
2022-11-19T05:54:27.635Z,67.07
2022-11-19T05:56:54.272Z,67.07
2022-11-19T05:59:21.413Z,66.90
2022-11-19T06:01:48.348Z,66.95
2022-11-19T06:04:14.983Z,66.60
2022-11-19T06:06:41.514Z,66.87
2022-11-19T06:09:08.325Z,66.61
2022-11-19T06:11:52.973Z,66.87
2022-11-19T06:14:24.626Z,66.56
2022-11-19T06:16:55.751Z,66.71
2022-11-19T06:19:23.288Z,66.30
2022-11-19T06:21:50.195Z,66.78
2022-11-19T06:24:17.354Z,66.43
2022-11-19T06:26:44.119Z,66.58
2022-11-19T06:29:13.559Z,66.58
2022-11-19T06:31:40.059Z,67.02
2022-11-19T06:34:06.685Z,66.38
2022-11-19T06:36:39.069Z,66.62
2022-11-19T06:39:08.576Z,66.36
2022-11-19T06:41:35.210Z,66.77
2022-11-19T06:44:01.768Z,66.44
2022-11-19T06:46:28.377Z,66.46
2022-11-19T06:48:54.882Z,66.42
2022-11-19T06:51:21.285Z,66.61
2022-11-19T06:53:47.828Z,66.76
2022-11-19T06:56:14.420Z,66.76
2022-11-19T06:58:40.909Z,66.86
2022-11-19T07:01:07.401Z,66.78
2022-11-19T07:03:34.010Z,66.53
2022-11-19T07:06:03.683Z,66.82
2022-11-19T07:08:33.766Z,66.82
2022-11-19T07:11:00.954Z,66.77
2022-11-19T07:13:50.074Z,66.67
2022-11-19T07:16:16.514Z,66.83
2022-11-19T07:18:43.096Z,66.79
2022-11-19T07:21:09.677Z,66.53
2022-11-19T07:23:36.214Z,66.81
2022-11-19T07:26:02.782Z,66.73
2022-11-19T07:28:29.288Z,66.80
2022-11-19T07:30:56.058Z,66.37
2022-11-19T07:33:22.646Z,66.42
2022-11-19T07:35:49.159Z,66.51
2022-11-19T07:38:15.716Z,66.78
2022-11-19T07:40:42.161Z,66.81
2022-11-19T07:43:08.619Z,66.87
2022-11-19T07:45:37.707Z,66.61
2022-11-19T07:48:04.332Z,66.58
2022-11-19T07:50:30.933Z,66.48
2022-11-19T07:53:00.544Z,66.39
2022-11-19T07:55:27.112Z,66.68
2022-11-19T07:57:54.194Z,66.58
2022-11-19T08:03:56.573Z,66.90
2022-11-19T08:06:25.422Z,66.84
2022-11-19T08:08:56.038Z,66.84
2022-11-19T08:11:22.485Z,66.85
2022-11-19T08:13:48.915Z,66.61
2022-11-19T08:16:35.978Z,66.95
2022-11-19T08:19:04.257Z,67.15
2022-11-19T08:21:31.902Z,66.87
2022-11-19T08:23:58.411Z,66.52
2022-11-19T08:26:25.942Z,67.26
2022-11-19T08:28:53.530Z,66.50
2022-11-19T08:31:21.035Z,66.62
2022-11-19T08:33:47.468Z,66.55
2022-11-19T08:36:26.978Z,66.14
2022-11-19T08:38:56.478Z,66.33
2022-11-19T08:41:46.654Z,66.47
2022-11-19T08:44:13.442Z,66.69
2022-11-19T08:46:41.074Z,66.47
2022-11-19T08:49:16.901Z,65.98
2022-11-19T08:51:43.259Z,66.68
2022-11-19T08:54:09.845Z,66.79
2022-11-19T08:56:36.348Z,66.59
2022-11-19T08:59:03.855Z,66.64
2022-11-19T09:01:31.462Z,66.85
2022-11-19T09:03:58.342Z,66.85
2022-11-19T09:06:27.128Z,66.43
2022-11-19T09:08:53.864Z,66.60
2022-11-19T09:11:26.554Z,66.11
2022-11-19T09:13:53.013Z,66.40
2022-11-19T09:16:24.775Z,66.28
2022-11-19T09:18:51.855Z,66.77
2022-11-19T09:21:22.332Z,66.26
2022-11-19T09:23:48.740Z,66.84
2022-11-19T09:26:27.580Z,65.86
2022-11-19T09:28:53.928Z,66.59
2022-11-19T09:31:22.483Z,66.77
2022-11-19T09:33:51.842Z,66.57
2022-11-19T09:36:30.984Z,65.69
2022-11-19T09:38:58.164Z,66.91
2022-11-19T09:41:58.682Z,65.80
2022-11-19T09:44:59.926Z,66.35
2022-11-19T09:47:55.764Z,65.82
2022-11-19T09:50:35.071Z,65.98
2022-11-19T09:53:09.351Z,66.17
2022-11-19T09:55:38.499Z,66.21
2022-11-19T09:58:13.366Z,66.20
2022-11-19T10:00:40.102Z,66.46
2022-11-19T10:03:16.090Z,66.03
2022-11-19T10:06:09.008Z,65.84
2022-11-19T10:09:05.708Z,65.82
2022-11-19T10:11:54.074Z,66.24
2022-11-19T10:14:58.195Z,65.54
2022-11-19T10:18:03.355Z,65.55
2022-11-19T10:20:35.623Z,65.97
2022-11-19T10:23:17.148Z,65.86
2022-11-19T10:25:47.352Z,66.18
2022-11-19T10:28:26.743Z,65.46
2022-11-19T10:31:00.044Z,66.54
2022-11-19T10:33:35.918Z,65.64
2022-11-19T10:36:07.819Z,66.29
2022-11-19T10:38:51.222Z,65.98
2022-11-19T10:41:27.297Z,65.79
2022-11-19T10:44:38.265Z,65.72
2022-11-19T10:47:07.617Z,66.13
2022-11-19T10:49:39.978Z,66.09
2022-11-19T10:52:17.555Z,65.92
2022-11-19T10:54:46.310Z,66.88
2022-11-19T10:57:17.367Z,66.93
2022-11-19T10:59:44.197Z,67.75
2022-11-19T11:02:28.200Z,66.70
2022-11-19T11:05:14.384Z,68.38
2022-11-19T11:07:50.077Z,69.46
2022-11-19T11:10:35.074Z,69.28
2022-11-19T11:13:47.178Z,68.73
2022-11-19T11:16:18.115Z,71.71
2022-11-19T11:18:46.147Z,71.42
2022-11-19T11:21:36.971Z,64.99
2022-11-19T11:24:04.928Z,68.75
2022-11-19T11:26:33.843Z,67.02
2022-11-19T11:29:21.041Z,66.66
2022-11-19T11:31:48.103Z,64.96
2022-11-19T11:34:30.675Z,57.65
2022-11-19T11:36:59.976Z,58.97
2022-11-19T11:39:33.456Z,57.54
2022-11-19T11:42:09.986Z,58.67
2022-11-19T11:44:49.357Z,57.43
2022-11-19T11:47:24.772Z,55.32
2022-11-19T11:50:14.677Z,53.87
2022-11-19T11:52:48.347Z,55.34
2022-11-19T11:55:38.584Z,55.36
2022-11-19T11:58:24.383Z,54.41
2022-11-19T12:00:55.299Z,52.96
2022-11-19T12:03:22.739Z,54.63
2022-11-19T12:05:52.579Z,52.44
2022-11-19T12:08:40.611Z,52.64
2022-11-19T12:11:54.462Z,52.46
2022-11-19T12:14:24.198Z,52.74
2022-11-19T12:17:17.194Z,54.28
2022-11-19T12:19:59.319Z,51.45
2022-11-19T12:22:31.867Z,51.68
2022-11-19T12:25:14.447Z,55.52
2022-11-19T12:27:56.956Z,51.64
2022-11-19T12:30:31.907Z,51.01
2022-11-19T12:33:37.896Z,48.27
2022-11-19T12:36:30.208Z,47.75
2022-11-19T12:39:18.474Z,46.76
2022-11-19T12:42:24.909Z,47.83
2022-11-19T12:45:26.858Z,46.89
2022-11-19T12:48:11.528Z,47.19
2022-11-19T12:50:53.225Z,47.88
2022-11-19T12:53:39.056Z,48.50
2022-11-19T12:56:13.986Z,48.46
2022-11-19T12:59:16.782Z,48.90
2022-11-19T13:01:48.537Z,50.40
2022-11-19T13:04:14.989Z,51.06
2022-11-19T13:06:49.902Z,50.33
2022-11-19T13:09:40.863Z,50.89
2022-11-19T13:12:11.389Z,51.40
2022-11-19T13:14:55.134Z,51.06
2022-11-19T13:17:40.437Z,51.89
2022-11-19T13:20:13.177Z,51.98
2022-11-19T13:22:44.672Z,52.66
2022-11-19T13:25:24.234Z,52.26
2022-11-19T13:27:53.485Z,53.97
2022-11-19T13:30:23.779Z,54.94
2022-11-19T13:32:52.931Z,55.99
2022-11-19T13:35:29.277Z,53.02
2022-11-19T13:38:23.845Z,52.35
2022-11-19T13:41:11.137Z,52.72
2022-11-19T13:43:56.265Z,54.32
2022-11-19T13:46:27.751Z,52.49
2022-11-19T13:49:00.056Z,55.22
2022-11-19T13:51:35.073Z,52.44
2022-11-19T13:54:04.688Z,53.23
2022-11-19T13:56:58.192Z,51.79
2022-11-19T13:59:30.075Z,53.65
2022-11-19T14:02:50.872Z,51.99
2022-11-19T14:05:43.012Z,51.08
2022-11-19T14:08:41.581Z,50.36
2022-11-19T14:11:49.915Z,50.18
2022-11-19T14:14:59.787Z,48.33
2022-11-19T14:18:29.572Z,48.25
2022-11-19T14:21:58.603Z,47.99
2022-11-19T14:24:43.381Z,49.37
2022-11-19T14:27:21.772Z,47.45
2022-11-19T14:29:48.094Z,49.58
2022-11-19T14:32:14.478Z,49.18
2022-11-19T14:34:47.709Z,47.16
2022-11-19T14:37:22.889Z,46.85
2022-11-19T14:39:57.633Z,46.74
2022-11-19T14:42:24.034Z,48.10
2022-11-19T14:45:05.904Z,46.78
2022-11-19T14:47:39.928Z,46.94
2022-11-19T14:50:22.189Z,46.93
2022-11-19T14:52:53.527Z,47.61
2022-11-19T14:55:26.226Z,47.85
2022-11-19T14:57:58.639Z,48.41
2022-11-19T15:00:37.580Z,48.82
2022-11-19T15:03:08.125Z,49.39
2022-11-19T15:05:46.287Z,49.01
2022-11-19T15:08:18.858Z,49.38
2022-11-19T15:11:08.062Z,49.92
2022-11-19T15:13:37.618Z,50.43
2022-11-19T15:16:21.049Z,50.19
2022-11-19T15:19:25.909Z,50.45
2022-11-19T15:22:11.224Z,50.66
2022-11-19T15:24:56.550Z,51.12
2022-11-19T15:27:41.849Z,51.82
2022-11-19T15:30:19.538Z,51.63
2022-11-19T15:33:20.376Z,51.59
2022-11-19T15:36:14.337Z,51.88
2022-11-19T15:38:46.624Z,52.11
2022-11-19T15:41:19.005Z,52.37
2022-11-19T15:43:53.497Z,51.97
2022-11-19T15:46:30.496Z,52.23
2022-11-19T15:49:21.998Z,52.41
2022-11-19T15:52:01.379Z,52.93
2022-11-19T15:54:29.763Z,52.97
2022-11-19T15:57:00.958Z,52.89
2022-11-19T15:59:29.798Z,53.06
2022-11-19T16:02:04.579Z,52.87
2022-11-19T16:04:38.914Z,53.11
2022-11-19T16:07:08.191Z,53.55
2022-11-19T16:09:34.930Z,53.74
2022-11-19T16:12:40.843Z,53.82
2022-11-19T16:15:42.024Z,53.32
2022-11-19T16:18:19.543Z,53.65
2022-11-19T16:20:50.087Z,53.80
2022-11-19T16:23:19.999Z,53.67
2022-11-19T16:25:47.339Z,53.91
2022-11-19T16:28:17.225Z,54.00
2022-11-19T16:30:46.474Z,53.96
2022-11-19T16:33:17.497Z,54.28
2022-11-19T16:35:48.316Z,54.31
2022-11-19T16:38:28.187Z,54.08
2022-11-19T16:41:15.233Z,54.52
2022-11-19T16:43:48.717Z,54.17
2022-11-19T16:46:19.021Z,54.24
2022-11-19T16:48:48.107Z,54.22
2022-11-19T16:51:57.885Z,54.51
2022-11-19T16:54:47.014Z,54.09
2022-11-19T16:57:29.542Z,54.53
2022-11-19T17:00:02.017Z,54.62
2022-11-19T17:02:31.938Z,54.47
2022-11-19T17:05:09.771Z,54.65
2022-11-19T17:07:36.791Z,54.70
2022-11-19T17:10:30.544Z,54.57
2022-11-19T17:12:58.427Z,54.62
2022-11-19T17:15:45.747Z,54.38
2022-11-19T17:18:18.415Z,54.82
2022-11-19T17:20:45.778Z,55.06
2022-11-19T17:23:16.467Z,54.62
2022-11-19T17:25:47.712Z,54.47
2022-11-19T17:28:19.638Z,55.02
2022-11-19T17:30:49.351Z,55.23
2022-11-19T17:33:17.704Z,54.99
2022-11-19T17:35:46.532Z,54.97
2022-11-19T17:38:20.616Z,54.99
2022-11-19T17:40:47.078Z,55.37
2022-11-19T17:43:33.665Z,55.84
2022-11-19T17:46:01.330Z,55.23
2022-11-19T17:48:31.764Z,55.29
2022-11-19T17:50:58.501Z,55.63
2022-11-19T17:53:25.005Z,55.95
2022-11-19T17:55:55.273Z,55.83
2022-11-19T17:58:21.873Z,55.42
2022-11-19T18:00:48.613Z,56.14
2022-11-19T18:03:15.879Z,55.83
2022-11-19T18:05:47.319Z,55.86
2022-11-19T18:08:15.489Z,55.98
2022-11-19T18:10:45.606Z,56.20
2022-11-19T18:13:16.501Z,56.11
2022-11-19T18:15:42.990Z,56.31
2022-11-19T18:18:09.500Z,55.80
2022-11-19T18:20:38.222Z,56.33
2022-11-19T18:23:04.867Z,56.46
2022-11-19T18:25:31.385Z,56.04
2022-11-19T18:27:57.926Z,56.37
2022-11-19T18:30:24.463Z,56.01
2022-11-19T18:32:53.215Z,56.28
2022-11-19T18:35:20.395Z,56.28
2022-11-19T18:37:46.953Z,56.20
2022-11-19T18:40:14.775Z,56.44
2022-11-19T18:43:00.940Z,55.97
2022-11-19T18:45:27.795Z,56.19
2022-11-19T18:47:54.434Z,56.13
2022-11-19T18:50:24.346Z,56.63
2022-11-19T18:52:53.380Z,56.47
2022-11-19T18:55:19.849Z,55.83
2022-11-19T18:57:46.312Z,56.17
2022-11-19T19:00:13.305Z,56.21
2022-11-19T19:02:39.929Z,56.16
2022-11-19T19:05:07.101Z,55.89
2022-11-19T19:07:33.621Z,56.11
2022-11-19T19:10:00.243Z,56.08
2022-11-19T19:12:26.681Z,55.99
2022-11-19T19:14:53.212Z,56.34
2022-11-19T19:17:19.825Z,55.79
2022-11-19T19:19:46.419Z,56.42
2022-11-19T19:22:25.477Z,56.21
2022-11-19T19:25:02.590Z,56.19
2022-11-19T19:27:29.322Z,56.85
2022-11-19T19:30:34.763Z,56.20
2022-11-19T19:33:01.213Z,56.51
2022-11-19T19:35:27.623Z,55.99
2022-11-19T19:37:54.094Z,56.55
2022-11-19T19:40:20.614Z,56.05
2022-11-19T19:42:49.226Z,56.87
2022-11-19T19:45:15.678Z,57.41
2022-11-19T19:47:42.071Z,56.90
2022-11-19T19:50:08.879Z,56.79
2022-11-19T19:52:35.352Z,56.83
2022-11-19T19:55:02.091Z,56.53
2022-11-19T19:57:30.251Z,56.51
2022-11-19T19:59:56.640Z,56.32
